sensor_id;sensor_type;location;lat;lon;timestamp;pressure;altitude;pressure_sealevel;temperature;humidity
28797;BME280;24974;54.444;18.560;2022-07-23T05:20:50;101342.38;;;18.89;71.82
28797;BME280;24974;54.444;18.560;2022-07-23T05:23:24;101327.28;;;19.02;71.18
28797;BME280;24974;54.444;18.560;2022-07-23T05:25:56;101333.09;;;18.97;71.33
28797;BME280;24974;54.444;18.560;2022-07-23T05:28:29;101340.75;;;19.00;71.42
28797;BME280;24974;54.444;18.560;2022-07-23T05:31:00;101336.19;;;19.08;69.93
28797;BME280;24974;54.444;18.560;2022-07-23T05:33:31;101350.94;;;19.20;70.05
28797;BME280;24974;54.444;18.560;2022-07-23T05:36:03;101340.69;;;19.24;69.38
28797;BME280;24974;54.444;18.560;2022-07-23T05:38:36;101335.72;;;19.18;68.55
28797;BME280;24974;54.444;18.560;2022-07-23T05:41:07;101351.22;;;19.43;68.09
28797;BME280;24974;54.444;18.560;2022-07-23T05:43:39;101335.09;;;19.24;67.82
28797;BME280;24974;54.444;18.560;2022-07-23T05:46:14;101335.03;;;19.49;67.50
28797;BME280;24974;54.444;18.560;2022-07-23T05:48:47;101334.88;;;19.70;66.66
28797;BME280;24974;54.444;18.560;2022-07-23T05:51:40;101333.69;;;19.71;65.67
28797;BME280;24974;54.444;18.560;2022-07-23T05:54:11;101348.63;;;19.50;65.55
28797;BME280;24974;54.444;18.560;2022-07-23T05:56:43;101327.59;;;19.65;65.47
28797;BME280;24974;54.444;18.560;2022-07-23T05:59:14;101335.03;;;19.61;65.16
28797;BME280;24974;54.444;18.560;2022-07-23T06:01:45;101326.56;;;20.01;65.01
28797;BME280;24974;54.444;18.560;2022-07-23T06:04:16;101329.78;;;19.88;64.88
28797;BME280;24974;54.444;18.560;2022-07-23T06:06:57;101327.19;;;19.95;64.56
28797;BME280;24974;54.444;18.560;2022-07-23T06:09:28;101329.28;;;19.98;64.77
28797;BME280;24974;54.444;18.560;2022-07-23T06:11:59;101329.28;;;19.98;65.08
28797;BME280;24974;54.444;18.560;2022-07-23T06:14:30;101324.75;;;19.93;64.35
28797;BME280;24974;54.444;18.560;2022-07-23T06:17:03;101321.16;;;19.93;63.70
28797;BME280;24974;54.444;18.560;2022-07-23T06:19:34;101308.91;;;20.13;63.07
28797;BME280;24974;54.444;18.560;2022-07-23T06:22:05;101317.03;;;20.34;63.30
28797;BME280;24974;54.444;18.560;2022-07-23T06:24:36;101313.53;;;20.21;63.77
28797;BME280;24974;54.444;18.560;2022-07-23T06:27:07;101307.94;;;20.53;62.69
28797;BME280;24974;54.444;18.560;2022-07-23T06:29:39;101300.28;;;20.65;62.80
28797;BME280;24974;54.444;18.560;2022-07-23T06:32:11;101295.91;;;20.84;60.73
28797;BME280;24974;54.444;18.560;2022-07-23T06:34:42;101293.13;;;20.84;60.95
28797;BME280;24974;54.444;18.560;2022-07-23T06:37:13;101289.47;;;20.99;60.54
28797;BME280;24974;54.444;18.560;2022-07-23T06:39:44;101284.31;;;20.82;60.88
28797;BME280;24974;54.444;18.560;2022-07-23T06:42:15;101297.13;;;21.02;60.38
28797;BME280;24974;54.444;18.560;2022-07-23T06:44:50;101315.53;;;21.22;60.19
28797;BME280;24974;54.444;18.560;2022-07-23T06:47:21;101323.13;;;21.22;60.23
28797;BME280;24974;54.444;18.560;2022-07-23T06:49:52;101317.28;;;21.27;60.61
28797;BME280;24974;54.444;18.560;2022-07-23T06:52:23;101317.91;;;21.40;59.73
28797;BME280;24974;54.444;18.560;2022-07-23T06:54:54;101317.34;;;21.31;59.50
28797;BME280;24974;54.444;18.560;2022-07-23T06:57:25;101323.75;;;21.50;58.90
28797;BME280;24974;54.444;18.560;2022-07-23T06:59:57;101326.63;;;21.35;59.11
28797;BME280;24974;54.444;18.560;2022-07-23T07:02:27;101335.72;;;21.32;58.36
28797;BME280;24974;54.444;18.560;2022-07-23T07:04:59;101331.03;;;21.55;58.52
28797;BME280;24974;54.444;18.560;2022-07-23T07:07:30;101332.06;;;21.66;57.38
28797;BME280;24974;54.444;18.560;2022-07-23T07:10:03;101324.72;;;21.81;57.47
28797;BME280;24974;54.444;18.560;2022-07-23T07:12:34;101314.25;;;21.97;57.01
28797;BME280;24974;54.444;18.560;2022-07-23T07:15:05;101310.34;;;22.02;55.84
28797;BME280;24974;54.444;18.560;2022-07-23T07:17:36;101308.06;;;22.08;56.03
28797;BME280;24974;54.444;18.560;2022-07-23T07:20:08;101311.34;;;22.13;55.68
28797;BME280;24974;54.444;18.560;2022-07-23T07:22:39;101318.94;;;21.90;55.92
28797;BME280;24974;54.444;18.560;2022-07-23T07:25:10;101320.84;;;21.86;56.39
28797;BME280;24974;54.444;18.560;2022-07-23T07:27:41;101335.19;;;21.84;56.71
28797;BME280;24974;54.444;18.560;2022-07-23T07:30:14;101329.09;;;21.78;56.55
28797;BME280;24974;54.444;18.560;2022-07-23T07:32:45;101317.75;;;21.91;56.37
28797;BME280;24974;54.444;18.560;2022-07-23T07:35:16;101314.84;;;21.87;56.07
28797;BME280;24974;54.444;18.560;2022-07-23T07:37:47;101310.28;;;21.98;54.80
28797;BME280;24974;54.444;18.560;2022-07-23T07:40:18;101308.63;;;22.40;54.29
28797;BME280;24974;54.444;18.560;2022-07-23T07:42:52;101306.59;;;22.63;54.67
28797;BME280;24974;54.444;18.560;2022-07-23T07:45:24;101307.41;;;22.90;53.79
28797;BME280;24974;54.444;18.560;2022-07-23T07:47:55;101309.38;;;22.86;56.19
28797;BME280;24974;54.444;18.560;2022-07-23T07:50:26;101310.25;;;23.20;56.02
28797;BME280;24974;54.444;18.560;2022-07-23T07:52:57;101308.75;;;23.30;55.96
28797;BME280;24974;54.444;18.560;2022-07-23T07:55:28;101301.16;;;23.30;55.59
28797;BME280;24974;54.444;18.560;2022-07-23T07:57:59;101301.34;;;23.44;55.30
28797;BME280;24974;54.444;18.560;2022-07-23T08:00:30;101299.59;;;23.03;56.56
28797;BME280;24974;54.444;18.560;2022-07-23T08:03:01;101302.97;;;23.15;56.05
28797;BME280;24974;54.444;18.560;2022-07-23T08:05:32;101303.72;;;23.12;55.69
28797;BME280;24974;54.444;18.560;2022-07-23T08:08:03;101307.44;;;23.20;55.96
28797;BME280;24974;54.444;18.560;2022-07-23T08:10:34;101300.50;;;23.10;55.65
28797;BME280;24974;54.444;18.560;2022-07-23T08:13:05;101299.78;;;23.17;55.64
28797;BME280;24974;54.444;18.560;2022-07-23T08:15:36;101302.25;;;23.22;55.71
28797;BME280;24974;54.444;18.560;2022-07-23T08:18:07;101294.16;;;23.17;55.88
28797;BME280;24974;54.444;18.560;2022-07-23T08:20:38;101294.97;;;23.17;56.50
28797;BME280;24974;54.444;18.560;2022-07-23T08:23:09;101297.88;;;23.25;56.59
28797;BME280;24974;54.444;18.560;2022-07-23T08:25:42;101305.56;;;23.01;57.39
28797;BME280;24974;54.444;18.560;2022-07-23T08:28:14;101307.53;;;22.97;58.13
28797;BME280;24974;54.444;18.560;2022-07-23T08:30:46;101316.38;;;22.76;58.83
28797;BME280;24974;54.444;18.560;2022-07-23T08:33:18;101313.19;;;22.78;58.92
28797;BME280;24974;54.444;18.560;2022-07-23T08:35:50;101303.25;;;23.07;58.24
28797;BME280;24974;54.444;18.560;2022-07-23T08:38:23;101305.88;;;22.70;59.26
28797;BME280;24974;54.444;18.560;2022-07-23T08:40:56;101307.94;;;22.46;59.86
28797;BME280;24974;54.444;18.560;2022-07-23T08:43:32;101313.47;;;22.69;59.50
28797;BME280;24974;54.444;18.560;2022-07-23T08:46:03;101312.53;;;22.12;59.86
28797;BME280;24974;54.444;18.560;2022-07-23T08:48:35;101297.00;;;22.64;59.24
28797;BME280;24974;54.444;18.560;2022-07-23T08:51:09;101303.63;;;22.52;59.56
28797;BME280;24974;54.444;18.560;2022-07-23T08:53:41;101305.97;;;22.77;59.11
28797;BME280;24974;54.444;18.560;2022-07-23T08:56:12;101301.53;;;22.99;57.88
28797;BME280;24974;54.444;18.560;2022-07-23T08:58:43;101302.66;;;22.68;59.17
28797;BME280;24974;54.444;18.560;2022-07-23T09:01:14;101293.34;;;23.16;58.46
28797;BME280;24974;54.444;18.560;2022-07-23T09:03:45;101301.22;;;23.04;58.60
28797;BME280;24974;54.444;18.560;2022-07-23T09:06:16;101300.03;;;23.05;57.99
28797;BME280;24974;54.444;18.560;2022-07-23T09:08:47;101298.34;;;23.30;57.59
28797;BME280;24974;54.444;18.560;2022-07-23T09:11:18;101299.88;;;23.24;56.76
28797;BME280;24974;54.444;18.560;2022-07-23T09:13:53;101304.28;;;23.25;57.50
28797;BME280;24974;54.444;18.560;2022-07-23T09:16:27;101311.25;;;23.35;57.77
28797;BME280;24974;54.444;18.560;2022-07-23T09:19:05;101299.13;;;23.98;56.30
28797;BME280;24974;54.444;18.560;2022-07-23T09:21:37;101296.50;;;24.19;55.60
28797;BME280;24974;54.444;18.560;2022-07-23T09:24:16;101297.78;;;24.29;54.76
28797;BME280;24974;54.444;18.560;2022-07-23T09:26:48;101296.78;;;24.48;54.28
28797;BME280;24974;54.444;18.560;2022-07-23T09:29:25;101298.13;;;24.65;54.19
28797;BME280;24974;54.444;18.560;2022-07-23T09:31:57;101307.50;;;24.90;53.37
28797;BME280;24974;54.444;18.560;2022-07-23T09:34:32;101292.97;;;25.54;52.54
28797;BME280;24974;54.444;18.560;2022-07-23T09:37:13;101300.00;;;25.05;52.56
28797;BME280;24974;54.444;18.560;2022-07-23T09:39:46;101290.56;;;25.66;51.77
28797;BME280;24974;54.444;18.560;2022-07-23T09:42:23;101284.47;;;25.39;52.78
28797;BME280;24974;54.444;18.560;2022-07-23T09:44:57;101281.13;;;25.05;53.41
28797;BME280;24974;54.444;18.560;2022-07-23T09:47:30;101292.00;;;25.18;52.98
28797;BME280;24974;54.444;18.560;2022-07-23T09:50:12;101275.81;;;24.97;53.20
28797;BME280;24974;54.444;18.560;2022-07-23T09:52:46;101281.59;;;24.56;54.32
28797;BME280;24974;54.444;18.560;2022-07-23T09:55:18;101284.88;;;24.21;55.57
28797;BME280;24974;54.444;18.560;2022-07-23T09:57:50;101272.88;;;24.75;54.66
28797;BME280;24974;54.444;18.560;2022-07-23T10:00:22;101277.13;;;24.51;54.70
28797;BME280;24974;54.444;18.560;2022-07-23T10:02:54;101285.94;;;24.46;54.70
28797;BME280;24974;54.444;18.560;2022-07-23T10:05:33;101290.56;;;24.24;55.66
28797;BME280;24974;54.444;18.560;2022-07-23T10:08:32;101292.34;;;23.99;55.50
28797;BME280;24974;54.444;18.560;2022-07-23T10:11:22;101294.63;;;23.90;56.50
28797;BME280;24974;54.444;18.560;2022-07-23T10:14:00;101287.72;;;23.80;57.20
28797;BME280;24974;54.444;18.560;2022-07-23T10:16:45;101309.19;;;23.62;57.68
28797;BME280;24974;54.444;18.560;2022-07-23T10:19:19;101318.38;;;23.29;58.32
28797;BME280;24974;54.444;18.560;2022-07-23T10:21:58;101315.09;;;23.23;57.47
28797;BME280;24974;54.444;18.560;2022-07-23T10:36:19;101340.97;;;22.37;62.02
28797;BME280;24974;54.444;18.560;2022-07-23T10:38:56;101328.13;;;22.59;62.88
28797;BME280;24974;54.444;18.560;2022-07-23T10:41:37;101325.09;;;22.45;64.39
28797;BME280;24974;54.444;18.560;2022-07-23T10:44:23;101329.41;;;22.88;62.08
28797;BME280;24974;54.444;18.560;2022-07-23T10:46:59;101324.25;;;23.20;60.94
28797;BME280;24974;54.444;18.560;2022-07-23T10:49:49;101325.38;;;22.85;61.87
28797;BME280;24974;54.444;18.560;2022-07-23T10:52:23;101324.78;;;22.76;60.85
28797;BME280;24974;54.444;18.560;2022-07-23T10:57:52;101318.50;;;22.83;59.80
28797;BME280;24974;54.444;18.560;2022-07-23T11:00:25;101321.41;;;22.86;60.04
28797;BME280;24974;54.444;18.560;2022-07-23T11:03:00;101315.78;;;22.86;59.39
28797;BME280;24974;54.444;18.560;2022-07-23T11:05:45;101315.69;;;22.83;58.96
28797;BME280;24974;54.444;18.560;2022-07-23T11:08:20;101307.19;;;22.76;59.77
28797;BME280;24974;54.444;18.560;2022-07-23T11:10:55;101292.09;;;22.57;60.18
28797;BME280;24974;54.444;18.560;2022-07-23T11:24:05;101333.44;;;21.57;63.57
28797;BME280;24974;54.444;18.560;2022-07-23T11:26:41;101349.56;;;21.63;61.76
28797;BME280;24974;54.444;18.560;2022-07-23T11:32:00;101323.25;;;21.87;63.25
28797;BME280;24974;54.444;18.560;2022-07-23T11:40:12;101345.50;;;21.41;64.69
28797;BME280;24974;54.444;18.560;2022-07-23T11:45:36;101339.25;;;21.48;63.61
28797;BME280;24974;54.444;18.560;2022-07-23T11:48:14;101351.72;;;21.50;63.84
28797;BME280;24974;54.444;18.560;2022-07-23T11:50:47;101347.81;;;21.36;64.31
28797;BME280;24974;54.444;18.560;2022-07-23T11:53:32;101346.53;;;21.33;65.44
28797;BME280;24974;54.444;18.560;2022-07-23T11:56:10;101353.78;;;21.34;66.89
28797;BME280;24974;54.444;18.560;2022-07-23T11:58:54;101344.19;;;21.35;67.37
28797;BME280;24974;54.444;18.560;2022-07-23T12:01:26;101348.84;;;21.12;67.60
28797;BME280;24974;54.444;18.560;2022-07-23T12:03:57;101358.88;;;20.97;67.03
28797;BME280;24974;54.444;18.560;2022-07-23T12:06:28;101356.97;;;21.01;66.15
28797;BME280;24974;54.444;18.560;2022-07-23T12:08:59;101345.97;;;21.08;67.27
28797;BME280;24974;54.444;18.560;2022-07-23T12:11:29;101348.03;;;21.11;68.20
28797;BME280;24974;54.444;18.560;2022-07-23T12:14:00;101339.06;;;21.02;67.91
28797;BME280;24974;54.444;18.560;2022-07-23T12:16:32;101330.25;;;20.84;68.05
28797;BME280;24974;54.444;18.560;2022-07-23T12:19:04;101314.13;;;21.13;68.01
28797;BME280;24974;54.444;18.560;2022-07-23T12:21:35;101302.00;;;21.05;69.42
28797;BME280;24974;54.444;18.560;2022-07-23T12:24:07;101290.13;;;20.92;72.79
28797;BME280;24974;54.444;18.560;2022-07-23T12:26:38;101278.72;;;21.01;72.74
28797;BME280;24974;54.444;18.560;2022-07-23T12:29:09;101284.31;;;20.82;74.03
28797;BME280;24974;54.444;18.560;2022-07-23T12:31:39;101287.03;;;20.78;74.34
28797;BME280;24974;54.444;18.560;2022-07-23T12:34:14;101286.66;;;20.80;74.03
28797;BME280;24974;54.444;18.560;2022-07-23T12:36:46;101302.06;;;20.74;74.03
28797;BME280;24974;54.444;18.560;2022-07-23T12:39:31;101323.38;;;20.98;73.82
28797;BME280;24974;54.444;18.560;2022-07-23T12:42:02;101323.16;;;20.71;74.92
28797;BME280;24974;54.444;18.560;2022-07-23T12:44:33;101326.53;;;20.96;72.77
28797;BME280;24974;54.444;18.560;2022-07-23T12:47:04;101336.47;;;20.93;73.27
28797;BME280;24974;54.444;18.560;2022-07-23T12:49:35;101339.66;;;21.11;69.76
28797;BME280;24974;54.444;18.560;2022-07-23T12:52:18;101333.59;;;21.44;67.53
28797;BME280;24974;54.444;18.560;2022-07-23T12:54:50;101319.94;;;21.82;66.28
28797;BME280;24974;54.444;18.560;2022-07-23T12:57:46;101327.22;;;22.28;64.89
28797;BME280;24974;54.444;18.560;2022-07-23T13:00:18;101323.50;;;23.23;62.66
28797;BME280;24974;54.444;18.560;2022-07-23T13:02:49;101318.28;;;23.22;59.60
28797;BME280;24974;54.444;18.560;2022-07-23T13:05:20;101319.81;;;23.49;60.32
28797;BME280;24974;54.444;18.560;2022-07-23T13:07:51;101320.91;;;23.41;61.17
28797;BME280;24974;54.444;18.560;2022-07-23T13:10:21;101308.06;;;23.36;61.40
28797;BME280;24974;54.444;18.560;2022-07-23T13:12:52;101305.94;;;23.97;59.24
28797;BME280;24974;54.444;18.560;2022-07-23T13:15:23;101304.44;;;23.69;60.29
28797;BME280;24974;54.444;18.560;2022-07-23T13:17:54;101303.84;;;23.20;62.37
28797;BME280;24974;54.444;18.560;2022-07-23T13:20:25;101292.78;;;23.34;61.04
28797;BME280;24974;54.444;18.560;2022-07-23T13:22:55;101296.03;;;24.10;59.34
28797;BME280;24974;54.444;18.560;2022-07-23T13:25:27;101299.38;;;23.82;59.93
28797;BME280;24974;54.444;18.560;2022-07-23T13:27:58;101289.03;;;23.56;58.84
28797;BME280;24974;54.444;18.560;2022-07-23T13:30:29;101293.53;;;23.31;58.71
28797;BME280;24974;54.444;18.560;2022-07-23T13:33:02;101288.00;;;23.68;58.25
28797;BME280;24974;54.444;18.560;2022-07-23T13:35:35;101282.44;;;23.08;60.97
28797;BME280;24974;54.444;18.560;2022-07-23T13:38:07;101280.69;;;24.41;58.33
28797;BME280;24974;54.444;18.560;2022-07-23T13:40:42;101275.97;;;25.22;56.83
28797;BME280;24974;54.444;18.560;2022-07-23T13:43:16;101268.59;;;26.47;52.86
28797;BME280;24974;54.444;18.560;2022-07-23T13:45:48;101269.25;;;25.62;52.77
28797;BME280;24974;54.444;18.560;2022-07-23T13:48:19;101272.47;;;25.60;52.27
28797;BME280;24974;54.444;18.560;2022-07-23T13:50:51;101273.34;;;25.82;53.19
28797;BME280;24974;54.444;18.560;2022-07-23T13:53:24;101268.59;;;26.47;51.14
28797;BME280;24974;54.444;18.560;2022-07-23T13:55:54;101261.59;;;27.12;48.74
28797;BME280;24974;54.444;18.560;2022-07-23T13:58:25;101252.38;;;26.90;48.99
28797;BME280;24974;54.444;18.560;2022-07-23T14:00:57;101250.69;;;27.11;48.18
28797;BME280;24974;54.444;18.560;2022-07-23T14:03:28;101252.44;;;26.55;50.59
28797;BME280;24974;54.444;18.560;2022-07-23T14:05:59;101251.50;;;25.40;53.82
28797;BME280;24974;54.444;18.560;2022-07-23T14:08:30;101248.00;;;25.79;51.82
28797;BME280;24974;54.444;18.560;2022-07-23T14:11:01;101241.09;;;25.58;53.19
28797;BME280;24974;54.444;18.560;2022-07-23T14:13:32;101246.75;;;25.62;53.73
28797;BME280;24974;54.444;18.560;2022-07-23T14:16:03;101248.66;;;25.33;54.06
28797;BME280;24974;54.444;18.560;2022-07-23T14:18:34;101248.19;;;24.44;55.95
28797;BME280;24974;54.444;18.560;2022-07-23T14:21:05;101247.03;;;24.04;56.28
28797;BME280;24974;54.444;18.560;2022-07-23T14:23:36;101246.22;;;24.04;57.13
28797;BME280;24974;54.444;18.560;2022-07-23T14:26:07;101246.69;;;24.09;57.63
28797;BME280;24974;54.444;18.560;2022-07-23T14:28:38;101246.63;;;24.50;56.56
28797;BME280;24974;54.444;18.560;2022-07-23T14:31:09;101250.25;;;24.54;57.30
28797;BME280;24974;54.444;18.560;2022-07-23T14:33:40;101246.56;;;24.43;56.84
28797;BME280;24974;54.444;18.560;2022-07-23T14:36:11;101242.84;;;24.87;55.92
28797;BME280;24974;54.444;18.560;2022-07-23T14:38:42;101239.41;;;25.22;53.96
28797;BME280;24974;54.444;18.560;2022-07-23T14:41:13;101244.31;;;24.70;55.08
28797;BME280;24974;54.444;18.560;2022-07-23T14:43:44;101236.13;;;23.92;56.33
28797;BME280;24974;54.444;18.560;2022-07-23T14:46:15;101231.31;;;23.96;56.61
28797;BME280;24974;54.444;18.560;2022-07-23T14:48:46;101241.25;;;24.93;55.69
28797;BME280;24974;54.444;18.560;2022-07-23T14:51:17;101243.06;;;24.60;56.53
28797;BME280;24974;54.444;18.560;2022-07-23T14:53:49;101239.75;;;24.40;56.61
28797;BME280;24974;54.444;18.560;2022-07-23T14:56:20;101241.00;;;24.50;55.76
28797;BME280;24974;54.444;18.560;2022-07-23T14:58:51;101240.53;;;25.10;53.83
28797;BME280;24974;54.444;18.560;2022-07-23T15:01:22;101235.75;;;25.10;54.23
28797;BME280;24974;54.444;18.560;2022-07-23T15:03:53;101237.00;;;25.34;52.76
28797;BME280;24974;54.444;18.560;2022-07-23T15:06:24;101237.59;;;24.81;53.24
28797;BME280;24974;54.444;18.560;2022-07-23T15:08:55;101233.69;;;24.38;52.43
28797;BME280;24974;54.444;18.560;2022-07-23T15:11:27;101239.19;;;24.24;53.61
28797;BME280;24974;54.444;18.560;2022-07-23T15:14:00;101237.78;;;24.00;54.68
28797;BME280;24974;54.444;18.560;2022-07-23T15:16:32;101236.72;;;23.71;54.74
28797;BME280;24974;54.444;18.560;2022-07-23T15:19:03;101245.13;;;23.71;54.91
28797;BME280;24974;54.444;18.560;2022-07-23T15:21:35;101241.19;;;23.79;55.29
28797;BME280;24974;54.444;18.560;2022-07-23T15:24:06;101241.56;;;23.40;56.67
28797;BME280;24974;54.444;18.560;2022-07-23T15:26:37;101240.31;;;23.68;56.31
28797;BME280;24974;54.444;18.560;2022-07-23T15:29:07;101242.06;;;23.87;56.62
28797;BME280;24974;54.444;18.560;2022-07-23T15:31:38;101241.44;;;23.63;56.95
28797;BME280;24974;54.444;18.560;2022-07-23T15:34:09;101238.81;;;24.29;55.16
28797;BME280;24974;54.444;18.560;2022-07-23T15:36:40;101246.59;;;25.16;52.57
28797;BME280;24974;54.444;18.560;2022-07-23T15:39:11;101242.81;;;24.83;52.70
28797;BME280;24974;54.444;18.560;2022-07-23T15:41:42;101242.00;;;24.24;53.76
28797;BME280;24974;54.444;18.560;2022-07-23T15:44:13;101238.25;;;24.61;51.66
28797;BME280;24974;54.444;18.560;2022-07-23T15:46:44;101231.16;;;24.22;52.79
28797;BME280;24974;54.444;18.560;2022-07-23T15:49:15;101231.91;;;24.16;53.75
28797;BME280;24974;54.444;18.560;2022-07-23T15:51:46;101234.94;;;23.96;54.39
28797;BME280;24974;54.444;18.560;2022-07-23T15:54:17;101240.13;;;23.57;55.85
28797;BME280;24974;54.444;18.560;2022-07-23T15:56:48;101243.53;;;23.36;55.11
28797;BME280;24974;54.444;18.560;2022-07-23T15:59:19;101244.84;;;23.12;56.90
28797;BME280;24974;54.444;18.560;2022-07-23T16:01:50;101248.44;;;22.83;57.77
28797;BME280;24974;54.444;18.560;2022-07-23T16:04:21;101237.81;;;22.69;58.37
28797;BME280;24974;54.444;18.560;2022-07-23T16:06:52;101243.75;;;22.91;57.86
28797;BME280;24974;54.444;18.560;2022-07-23T16:09:23;101241.88;;;22.98;58.37
28797;BME280;24974;54.444;18.560;2022-07-23T16:11:54;101249.59;;;22.78;58.83
28797;BME280;24974;54.444;18.560;2022-07-23T16:14:25;101239.84;;;22.95;57.88
28797;BME280;24974;54.444;18.560;2022-07-23T16:16:56;101237.66;;;23.15;57.42
28797;BME280;24974;54.444;18.560;2022-07-23T16:19:27;101234.75;;;23.04;57.12
28797;BME280;24974;54.444;18.560;2022-07-23T16:21:58;101242.25;;;22.97;57.91
28797;BME280;24974;54.444;18.560;2022-07-23T16:24:29;101244.69;;;23.02;57.38
28797;BME280;24974;54.444;18.560;2022-07-23T16:27:00;101250.91;;;22.61;58.38
28797;BME280;24974;54.444;18.560;2022-07-23T16:29:31;101253.03;;;22.68;59.01
28797;BME280;24974;54.444;18.560;2022-07-23T16:32:02;101250.03;;;23.10;57.04
28797;BME280;24974;54.444;18.560;2022-07-23T16:34:33;101254.38;;;23.38;56.64
28797;BME280;24974;54.444;18.560;2022-07-23T16:37:08;101244.88;;;23.87;54.82
28797;BME280;24974;54.444;18.560;2022-07-23T16:39:39;101255.72;;;23.88;54.62
28797;BME280;24974;54.444;18.560;2022-07-23T16:42:10;101257.97;;;23.05;55.61
28797;BME280;24974;54.444;18.560;2022-07-23T16:44:41;101259.66;;;22.56;57.40
28797;BME280;24974;54.444;18.560;2022-07-23T16:47:12;101260.06;;;22.55;57.09
28797;BME280;24974;54.444;18.560;2022-07-23T16:49:42;101259.66;;;22.56;56.85
28797;BME280;24974;54.444;18.560;2022-07-23T16:52:13;101261.31;;;22.34;57.40
28797;BME280;24974;54.444;18.560;2022-07-23T16:54:45;101251.00;;;21.93;58.71
28797;BME280;24974;54.444;18.560;2022-07-23T16:57:16;101260.63;;;22.15;58.34
28797;BME280;24974;54.444;18.560;2022-07-23T16:59:47;101261.56;;;22.03;58.87
28797;BME280;24974;54.444;18.560;2022-07-23T17:02:18;101272.50;;;21.89;58.59
28797;BME280;24974;54.444;18.560;2022-07-23T17:04:49;101268.78;;;21.39;58.82
28797;BME280;24974;54.444;18.560;2022-07-23T17:07:20;101277.16;;;21.19;58.52
28797;BME280;24974;54.444;18.560;2022-07-23T17:09:51;101278.97;;;21.12;58.61
28797;BME280;24974;54.444;18.560;2022-07-23T17:12:21;101282.94;;;21.11;58.51
28797;BME280;24974;54.444;18.560;2022-07-23T17:14:52;101276.69;;;20.98;57.77
28797;BME280;24974;54.444;18.560;2022-07-23T17:17:23;101265.53;;;20.63;58.42
28797;BME280;24974;54.444;18.560;2022-07-23T17:19:54;101261.25;;;20.69;58.58
28797;BME280;24974;54.444;18.560;2022-07-23T17:22:25;101268.06;;;20.52;58.97
28797;BME280;24974;54.444;18.560;2022-07-23T17:24:56;101272.38;;;20.34;59.08
28797;BME280;24974;54.444;18.560;2022-07-23T17:27:27;101280.94;;;20.41;59.13
28797;BME280;24974;54.444;18.560;2022-07-23T17:29:58;101278.50;;;20.39;59.18
28797;BME280;24974;54.444;18.560;2022-07-23T17:32:29;101272.75;;;20.32;59.66
28797;BME280;24974;54.444;18.560;2022-07-23T17:34:59;101279.94;;;20.33;59.02
28797;BME280;24974;54.444;18.560;2022-07-23T17:37:30;101269.69;;;20.22;59.49
28797;BME280;24974;54.444;18.560;2022-07-23T17:40:02;101272.81;;;20.20;58.79
28797;BME280;24974;54.444;18.560;2022-07-23T17:42:33;101271.66;;;19.90;59.15
28797;BME280;24974;54.444;18.560;2022-07-23T17:45:07;101265.00;;;19.94;59.34
28797;BME280;24974;54.444;18.560;2022-07-23T17:47:41;101269.13;;;19.69;59.82
28797;BME280;24974;54.444;18.560;2022-07-23T17:50:12;101283.31;;;19.64;59.16
28797;BME280;24974;54.444;18.560;2022-07-23T17:52:48;101273.44;;;19.54;59.37
28797;BME280;24974;54.444;18.560;2022-07-23T17:55:20;101280.25;;;19.41;58.89
28797;BME280;24974;54.444;18.560;2022-07-23T17:57:53;101281.97;;;19.45;59.14
28797;BME280;24974;54.444;18.560;2022-07-23T18:00:29;101288.34;;;19.46;58.21
28797;BME280;24974;54.444;18.560;2022-07-23T18:03:00;101285.03;;;19.68;57.45
28797;BME280;24974;54.444;18.560;2022-07-23T18:05:32;101290.63;;;19.56;58.11
28797;BME280;24974;54.444;18.560;2022-07-23T18:08:03;101282.50;;;19.35;57.39
28797;BME280;24974;54.444;18.560;2022-07-23T18:10:35;101284.69;;;19.42;57.16
28797;BME280;24974;54.444;18.560;2022-07-23T18:13:07;101297.53;;;19.46;56.65
28797;BME280;24974;54.444;18.560;2022-07-23T18:15:38;101293.84;;;19.42;56.67
28797;BME280;24974;54.444;18.560;2022-07-23T18:18:08;101287.13;;;19.31;56.88
28797;BME280;24974;54.444;18.560;2022-07-23T18:20:39;101285.06;;;19.28;56.13
28797;BME280;24974;54.444;18.560;2022-07-23T18:23:10;101289.97;;;19.19;56.09
28797;BME280;24974;54.444;18.560;2022-07-23T18:25:42;101288.00;;;19.19;55.95
28797;BME280;24974;54.444;18.560;2022-07-23T18:28:13;101281.22;;;18.92;55.30
28797;BME280;24974;54.444;18.560;2022-07-23T18:30:44;101281.78;;;18.98;54.55
28797;BME280;24974;54.444;18.560;2022-07-23T18:33:15;101283.75;;;18.97;54.41
28797;BME280;24974;54.444;18.560;2022-07-23T18:35:46;101283.03;;;19.13;54.18
28797;BME280;24974;54.444;18.560;2022-07-23T18:38:17;101287.63;;;18.93;54.58
28797;BME280;24974;54.444;18.560;2022-07-23T18:40:48;101298.75;;;18.93;54.63
28797;BME280;24974;54.444;18.560;2022-07-23T18:43:19;101298.63;;;19.02;55.14
28797;BME280;24974;54.444;18.560;2022-07-23T18:45:50;101294.00;;;18.93;55.05
28797;BME280;24974;54.444;18.560;2022-07-23T18:48:21;101293.38;;;19.00;54.54
28797;BME280;24974;54.444;18.560;2022-07-23T18:50:52;101301.41;;;18.89;54.83
28797;BME280;24974;54.444;18.560;2022-07-23T18:53:23;101298.06;;;18.84;55.06
28797;BME280;24974;54.444;18.560;2022-07-23T18:55:53;101307.00;;;18.89;54.32
28797;BME280;24974;54.444;18.560;2022-07-23T18:58:24;101302.34;;;18.93;55.40
28797;BME280;24974;54.444;18.560;2022-07-23T19:00:55;101307.06;;;19.05;54.46
28797;BME280;24974;54.444;18.560;2022-07-23T19:03:26;101312.34;;;18.94;54.22